Time;durP1;ratioP1;P1;durP2;ratioP2;P2;SDS_P1;SDS_P2;PMS_P1;PMS_P2;Temp;Humidity;BMP_temperature;BMP_pressure;BME280_temperature;BME280_humidity;BME280_pressure;Samples;Min_cycle;Max_cycle;Signal;HPM_P1;HPM_P2
2022/11/21 00:01:13;;;;;;;17.77;6.82;;;;;;;6.91;60.69;98047.72;4483585;31;20110;-85
2022/11/21 00:03:39;;;;;;;19.92;7.47;;;;;;;6.89;60.71;98048.66;4475217;31;20080;-86
2022/11/21 00:06:04;;;;;;;21.95;7.12;;;;;;;6.88;60.72;98036.47;4498330;31;20408;-86
2022/11/21 00:08:29;;;;;;;20.67;7.25;;;;;;;6.87;60.85;98031.31;4493771;31;20103;-88
2022/11/21 00:10:58;;;;;;;20.17;7.68;;;;;;;6.88;60.61;98028.63;4477950;32;20096;-87
2022/11/21 00:13:23;;;;;;;19.67;8.05;;;;;;;6.90;60.50;98025.94;4485350;31;20237;-87
2022/11/21 00:15:49;;;;;;;20.02;7.97;;;;;;;6.33;61.73;98012.25;4475712;31;20250;-88
2022/11/21 00:18:14;;;;;;;18.90;7.37;;;;;;;6.55;60.96;98015.50;4496750;31;20096;-87
2022/11/21 00:20:40;;;;;;;18.67;7.22;;;;;;;6.62;60.71;98002.94;4481120;31;20075;-86
2022/11/21 00:23:06;;;;;;;21.27;8.57;;;;;;;6.63;60.63;98000.25;4491562;31;20391;-84
2022/11/21 00:25:32;;;;;;;20.88;8.27;;;;;;;6.48;61.15;97991.38;4485625;31;20100;-86
2022/11/21 00:27:57;;;;;;;20.42;8.32;;;;;;;6.54;61.42;97990.25;4476406;31;20108;-85
2022/11/21 00:30:22;;;;;;;19.33;7.03;;;;;;;6.44;61.98;97995.09;4495422;31;20368;-86
2022/11/21 00:32:48;;;;;;;19.50;7.25;;;;;;;6.45;62.29;97991.56;4481999;31;20080;-86
2022/11/21 00:35:13;;;;;;;18.35;7.57;;;;;;;6.60;61.93;97992.53;4476218;31;20115;-88
2022/11/21 00:37:39;;;;;;;19.02;7.00;;;;;;;6.58;61.55;97999.62;4485927;31;20100;-86
2022/11/21 00:40:05;;;;;;;17.73;7.05;;;;;;;6.61;61.31;97993.41;4491059;31;20080;-87
2022/11/21 00:42:30;;;;;;;18.45;7.25;;;;;;;6.63;61.01;97986.31;4495322;31;20497;-87
2022/11/21 00:44:56;;;;;;;19.55;7.65;;;;;;;6.64;60.75;97985.38;4496367;31;20115;-85
2022/11/21 00:47:21;;;;;;;19.45;7.62;;;;;;;6.61;60.53;97975.91;4462546;32;20115;-86
2022/11/21 00:49:47;;;;;;;18.95;7.28;;;;;;;6.57;60.50;97984.03;4502270;31;20108;-87
2022/11/21 00:52:12;;;;;;;20.12;7.22;;;;;;;6.59;60.33;97984.78;4503189;31;20085;-88
2022/11/21 00:54:37;;;;;;;16.95;6.50;;;;;;;6.52;60.31;97978.16;4503239;31;20088;-89
2022/11/21 00:57:03;;;;;;;19.58;7.45;;;;;;;6.44;60.51;97975.94;4489014;31;20106;-88
2022/11/21 00:59:28;;;;;;;17.00;6.28;;;;;;;6.41;60.57;97986.53;4503545;31;20088;-88
2022/11/21 01:01:54;;;;;;;16.42;5.72;;;;;;;6.38;60.66;97984.94;4503476;31;20072;-89
2022/11/21 01:04:19;;;;;;;17.90;6.00;;;;;;;6.32;60.85;97997.47;4489102;31;20096;-88
2022/11/21 01:06:45;;;;;;;15.52;5.80;;;;;;;6.30;60.94;97992.34;4503419;31;20080;-88
2022/11/21 01:09:10;;;;;;;17.20;6.25;;;;;;;6.14;61.28;97991.38;4488952;31;20083;-87
2022/11/21 01:11:35;;;;;;;16.02;6.12;;;;;;;6.13;61.96;97985.31;4503454;31;20151;-89
2022/11/21 01:14:01;;;;;;;16.58;5.75;;;;;;;6.07;62.51;97980.41;4503552;31;20440;-89
2022/11/21 01:16:27;;;;;;;14.68;5.68;;;;;;;6.20;62.11;97973.66;4503255;31;20158;-87
2022/11/21 01:18:53;;;;;;;17.20;6.28;;;;;;;6.27;61.75;97977.62;4488976;31;20083;-88
2022/11/21 01:21:21;;;;;;;16.40;5.82;;;;;;;6.31;61.46;97960.00;4488520;31;20104;-88
2022/11/21 01:23:47;;;;;;;14.90;5.40;;;;;;;6.28;61.49;97968.03;4502885;31;20092;-88
2022/11/21 01:26:14;;;;;;;14.77;5.10;;;;;;;6.26;61.46;97965.47;4503070;31;20084;-88
2022/11/21 01:28:40;;;;;;;15.15;5.35;;;;;;;6.32;61.29;97969.56;4488724;31;20118;-88
2022/11/21 01:31:07;;;;;;;13.40;4.93;;;;;;;6.30;61.22;97964.41;4488534;31;20127;-89
2022/11/21 01:33:34;;;;;;;13.05;4.53;;;;;;;6.27;61.22;97961.94;4488935;31;20103;-88
2022/11/21 01:36:16;;;;;;;13.73;4.95;;;;;;;6.27;61.30;97963.72;4475840;31;20537;-89
2022/11/21 01:38:43;;;;;;;13.52;4.65;;;;;;;6.26;61.40;97965.47;4503092;31;20091;-89
2022/11/21 01:41:10;;;;;;;15.05;4.78;;;;;;;6.23;61.46;97968.25;4503017;31;20088;-88
2022/11/21 01:43:35;;;;;;;16.12;5.70;;;;;;;6.22;61.59;97963.94;4488616;31;20096;-88
2022/11/21 01:46:07;;;;;;;14.52;5.00;;;;;;;6.25;nan;97966.37;4488542;31;20106;-88
2022/11/21 01:48:48;;;;;;;14.25;5.00;;;;;;;6.26;61.81;97970.72;4502989;31;20091;-88
2022/11/21 01:51:33;;;;;;;14.13;4.45;;;;;;;6.31;61.83;97954.78;4502978;31;20064;-88
2022/11/21 01:54:05;;;;;;;14.52;4.72;;;;;;;6.34;61.73;97953.78;4503207;31;20115;-87
2022/11/21 01:56:38;;;;;;;15.45;4.40;;;;;;;6.30;61.78;97953.94;4502917;31;20166;-87
2022/11/21 01:59:05;;;;;;;15.82;5.15;;;;;;;6.29;61.79;97954.00;4488563;31;20106;-86
2022/11/21 02:01:33;;;;;;;16.50;5.80;;;;;;;6.29;62.08;97946.16;4502876;31;20091;-86
2022/11/21 02:04:01;;;;;;;15.45;5.65;;;;;;;6.30;62.16;97947.88;4488603;31;20112;-86
2022/11/21 02:06:26;;;;;;;15.80;5.32;;;;;;;6.32;62.37;97942.53;4502408;31;20811;-87
2022/11/21 02:08:52;;;;;;;17.20;6.32;;;;;;;6.34;62.42;97946.78;4488471;31;20122;-87
2022/11/21 02:11:35;;;;;;;15.27;6.00;;;;;;;6.40;62.50;97948.25;4488322;31;20076;-86
2022/11/21 02:14:01;;;;;;;16.08;5.90;;;;;;;6.41;62.58;97942.06;4488541;31;20131;-89
2022/11/21 02:16:26;;;;;;;16.87;6.07;;;;;;;6.42;62.65;97946.41;4488276;31;20499;-89
2022/11/21 02:18:52;;;;;;;14.98;5.65;;;;;;;6.21;63.20;97956.19;4488335;31;20423;-87
2022/11/21 02:21:39;;;;;;;16.77;6.40;;;;;;;6.26;63.85;97948.94;4502635;31;20084;-87
2022/11/21 02:24:25;;;;;;;16.33;6.35;;;;;;;6.29;64.09;97948.78;4502787;31;20084;-88
2022/11/21 02:26:50;;;;;;;17.83;6.70;;;;;;;6.27;64.29;97959.31;4488264;31;20100;-87
2022/11/21 02:29:16;;;;;;;19.65;6.53;;;;;;;6.36;64.08;97947.56;4488467;31;20083;-88
2022/11/21 02:31:41;;;;;;;19.20;6.87;;;;;;;6.48;63.66;97939.06;4502237;31;20128;-88
2022/11/21 02:34:07;;;;;;;20.20;7.03;;;;;;;6.46;63.93;97948.75;4501540;31;20089;-88
2022/11/21 02:36:38;;;;;;;18.27;6.62;;;;;;;6.53;63.62;97945.81;4502631;31;20143;-88
2022/11/21 02:39:09;;;;;;;19.92;7.25;;;;;;;6.59;63.43;97940.31;4488426;31;20663;-87
2022/11/21 02:41:36;;;;;;;19.45;7.20;;;;;;;6.41;64.14;97929.84;4488590;31;20149;-88
2022/11/21 02:44:05;;;;;;;19.27;7.28;;;;;;;6.25;64.87;97937.63;4502654;31;20555;-88
2022/11/21 02:46:33;;;;;;;18.10;6.78;;;;;;;5.97;65.80;97938.19;4502466;31;20099;-88
2022/11/21 02:48:59;;;;;;;17.37;6.40;;;;;;;6.25;65.00;97927.16;4488054;31;20110;-88
2022/11/21 02:51:24;;;;;;;18.90;6.90;;;;;;;6.15;65.03;97932.94;4487884;31;20124;-88
2022/11/21 02:53:49;;;;;;;17.77;6.50;;;;;;;6.14;65.13;97937.31;4501969;31;20115;-88
2022/11/21 02:56:15;;;;;;;16.62;6.07;;;;;;;6.23;64.77;97938.62;4487758;31;20080;-88
2022/11/21 02:58:40;;;;;;;19.00;6.93;;;;;;;6.35;64.28;97934.53;4502201;31;20126;-88
2022/11/21 03:01:05;;;;;;;18.25;6.57;;;;;;;6.43;64.20;97937.59;4501960;31;20142;-89
2022/11/21 03:03:31;;;;;;;20.37;7.15;;;;;;;6.40;64.75;97941.22;4502161;31;20106;-89
2022/11/21 03:05:56;;;;;;;18.23;7.35;;;;;;;6.46;64.55;97932.22;4501984;31;20080;-87
2022/11/21 03:08:22;;;;;;;19.17;7.35;;;;;;;6.59;64.11;97935.91;4501992;31;20072;-88
2022/11/21 03:10:47;;;;;;;20.85;7.65;;;;;;;6.38;64.75;97932.62;4487630;31;20103;-88
2022/11/21 03:13:13;;;;;;;18.83;7.32;;;;;;;6.38;65.33;97927.37;4502018;31;20137;-87
2022/11/21 03:15:38;;;;;;;17.08;7.07;;;;;;;6.28;65.73;97939.25;4501955;31;20085;-86
2022/11/21 03:18:04;;;;;;;16.62;6.75;;;;;;;6.50;64.60;97937.22;4501881;31;20076;-87
2022/11/21 03:20:31;;;;;;;21.12;7.47;;;;;;;6.27;65.07;97932.31;4501738;31;20072;-87
2022/11/21 03:22:56;;;;;;;18.63;6.50;;;;;;;6.49;64.16;97934.69;4474405;31;20545;-87
2022/11/21 03:25:22;;;;;;;16.90;6.85;;;;;;;6.61;63.80;97935.84;4501759;31;20084;-85
2022/11/21 03:27:52;;;;;;;21.37;7.57;;;;;;;6.63;63.58;97939.22;4487487;31;20102;-86
2022/11/21 03:30:21;;;;;;;23.25;7.95;;;;;;;6.66;63.28;97925.94;4487635;31;20469;-86
2022/11/21 03:32:47;;;;;;;19.87;7.62;;;;;;;6.65;63.15;97927.72;4487488;31;20172;-85
2022/11/21 03:35:12;;;;;;;18.75;7.15;;;;;;;6.65;63.09;97925.09;4501962;31;20096;-85
2022/11/21 03:37:38;;;;;;;19.35;6.78;;;;;;;6.60;63.16;97929.72;4501860;31;20339;-85
2022/11/21 03:40:04;;;;;;;17.48;7.15;;;;;;;6.51;63.48;97925.00;4487447;31;20124;-85
2022/11/21 03:42:29;;;;;;;20.40;7.30;;;;;;;6.57;63.27;97919.44;4501960;31;20092;-86
2022/11/21 03:44:54;;;;;;;22.52;9.13;;;;;;;6.61;63.09;97917.50;4502096;31;20110;-85
2022/11/21 03:47:20;;;;;;;21.37;7.55;;;;;;;6.42;63.67;97915.00;4503868;31;20080;-86
2022/11/21 03:49:45;;;;;;;19.48;7.72;;;;;;;6.50;63.31;97910.22;4503773;31;20393;-86
2022/11/21 03:52:10;;;;;;;20.77;8.60;;;;;;;6.32;63.83;97906.78;4503876;31;20111;-87
2022/11/21 03:54:36;;;;;;;20.45;8.18;;;;;;;6.09;65.12;97908.78;4503863;31;20137;-87
2022/11/21 03:57:01;;;;;;;21.45;8.35;;;;;;;6.21;65.25;97909.09;4503964;31;20079;-85
2022/11/21 03:59:26;;;;;;;20.17;8.02;;;;;;;5.79;67.21;97912.91;4503714;31;20364;-87
2022/11/21 04:01:52;;;;;;;23.02;8.63;;;;;;;6.06;66.16;97902.88;4503885;31;20080;-86
2022/11/21 04:04:17;;;;;;;24.35;9.30;;;;;;;5.90;66.67;97902.75;4503721;31;20148;-87
2022/11/21 04:06:43;;;;;;;22.98;8.65;;;;;;;5.35;69.20;97898.47;4503823;31;20468;-87
2022/11/21 04:09:08;;;;;;;22.98;9.32;;;;;;;5.86;67.61;97898.63;4503862;31;20080;-86
2022/11/21 04:11:34;;;;;;;23.58;9.38;;;;;;;5.74;67.56;97896.59;4503950;31;20077;-86
2022/11/21 04:13:59;;;;;;;21.70;9.40;;;;;;;6.04;66.75;97887.25;4503885;31;20075;-86
2022/11/21 04:16:24;;;;;;;24.60;9.10;;;;;;;6.14;66.25;97885.00;4503792;31;20362;-87
2022/11/21 04:18:50;;;;;;;24.40;9.45;;;;;;;6.07;66.18;97881.03;4503692;31;20080;-86
2022/11/21 04:21:15;;;;;;;21.45;8.10;;;;;;;6.04;66.69;97878.56;4503756;31;20152;-86
2022/11/21 04:23:40;;;;;;;21.75;8.80;;;;;;;6.28;65.68;97871.25;4503718;31;20127;-86
2022/11/21 04:26:06;;;;;;;19.70;7.50;;;;;;;6.37;65.17;97872.53;4503750;31;20152;-87
2022/11/21 04:28:31;;;;;;;19.85;7.50;;;;;;;6.40;65.04;97869.75;4488827;31;20136;-86
2022/11/21 04:31:02;;;;;;;18.80;7.30;;;;;;;6.45;64.70;97870.34;4488898;31;20123;-87
2022/11/21 04:33:27;;;;;;;19.37;7.87;;;;;;;6.40;64.89;97875.00;4503547;31;20378;-88
2022/11/21 04:35:53;;;;;;;21.40;8.65;;;;;;;6.41;64.88;97861.84;4503448;31;20075;-87
2022/11/21 04:38:18;;;;;;;21.60;8.18;;;;;;;6.24;65.82;97867.09;4489044;31;20081;-88
2022/11/21 04:40:44;;;;;;;25.80;9.70;;;;;;;6.42;65.01;97870.53;4503479;31;20142;-86
2022/11/21 04:43:09;;;;;;;23.85;9.05;;;;;;;6.16;66.06;97867.50;4503458;31;20079;-87
2022/11/21 04:45:35;;;;;;;22.40;9.15;;;;;;;6.38;65.10;97848.91;4503352;31;20098;-87
2022/11/21 04:48:00;;;;;;;24.35;9.52;;;;;;;6.36;65.08;97855.16;4503137;31;20124;-87
2022/11/21 04:50:25;;;;;;;25.10;9.68;;;;;;;6.44;64.54;97852.97;4503253;31;20116;-87
2022/11/21 04:52:52;;;;;;;22.05;9.32;;;;;;;6.34;64.65;97846.56;4503360;31;20075;-86
2022/11/21 04:55:18;;;;;;;22.40;8.85;;;;;;;6.37;64.33;97841.12;4488843;31;20084;-85
2022/11/21 04:57:44;;;;;;;21.50;8.90;;;;;;;6.45;63.99;97845.06;4488301;31;20096;-85
2022/11/21 05:00:11;;;;;;;25.50;10.02;;;;;;;6.46;63.75;97844.13;4489051;31;20349;-87
2022/11/21 05:02:36;;;;;;;22.30;9.30;;;;;;;6.49;63.54;97837.88;4503350;31;20198;-86
2022/11/21 05:05:01;;;;;;;21.75;9.25;;;;;;;6.49;63.39;97843.13;4503379;31;20072;-87
2022/11/21 05:07:27;;;;;;;22.20;8.45;;;;;;;6.48;63.23;97844.03;4503115;31;20102;-87
2022/11/21 05:09:52;;;;;;;19.60;8.27;;;;;;;6.47;63.17;97847.56;4503385;31;20080;-87
2022/11/21 05:15:01;;;;;;;21.80;8.88;;;;;;;6.44;62.93;97845.97;4491075;31;20110;-86
2022/11/21 05:17:28;;;;;;;21.87;9.07;;;;;;;6.41;62.86;97840.91;4503164;31;20336;-87
2022/11/21 05:19:53;;;;;;;22.90;9.10;;;;;;;6.41;62.74;97850.50;4488794;31;20104;-86
2022/11/21 05:22:19;;;;;;;22.10;9.20;;;;;;;6.42;62.48;97850.44;4488796;31;20352;-87
2022/11/21 05:24:44;;;;;;;22.20;9.13;;;;;;;6.37;62.28;97843.75;4488665;31;20076;-87
2022/11/21 05:27:09;;;;;;;20.37;9.07;;;;;;;6.29;62.23;97842.38;4502905;31;20077;-86
2022/11/21 05:29:35;;;;;;;21.50;8.40;;;;;;;6.24;62.25;97838.34;4503062;31;20092;-87
2022/11/21 05:32:00;;;;;;;20.88;8.45;;;;;;;6.21;62.24;97828.03;4502877;31;20096;-86
2022/11/21 05:34:26;;;;;;;21.27;7.15;;;;;;;6.03;62.81;97829.84;4503031;31;20122;-86
2022/11/21 05:36:55;;;;;;;20.70;9.48;;;;;;;5.89;62.82;97841.81;4502852;31;20106;-86
2022/11/21 05:39:21;;;;;;;26.10;9.77;;;;;;;6.01;62.24;97834.31;4502952;31;20151;-86
2022/11/21 05:41:47;;;;;;;22.17;9.38;;;;;;;6.01;61.85;97832.53;4488593;31;20107;-86
2022/11/21 05:44:12;;;;;;;26.50;10.25;;;;;;;5.93;61.78;97825.94;4502710;31;20157;-86
2022/11/21 05:46:37;;;;;;;25.50;9.82;;;;;;;5.84;61.77;97827.28;4502890;31;20102;-87
2022/11/21 05:49:03;;;;;;;23.52;9.55;;;;;;;5.84;61.45;97838.56;4502920;31;20394;-87
2022/11/21 05:51:28;;;;;;;26.65;10.98;;;;;;;5.58;61.62;97832.06;4502838;31;20134;-87
2022/11/21 05:53:54;;;;;;;24.95;10.15;;;;;;;5.63;61.39;97830.03;4502801;31;20085;-87
2022/11/21 05:56:19;;;;;;;23.00;9.45;;;;;;;5.58;61.40;97834.66;4502875;31;20080;-85
2022/11/21 05:58:44;;;;;;;22.17;9.00;;;;;;;5.51;61.65;97841.94;4502974;31;20084;-86
2022/11/21 06:01:11;;;;;;;21.67;8.32;;;;;;;5.43;61.55;97836.25;4502775;31;20356;-85
2022/11/21 06:03:38;;;;;;;19.62;7.90;;;;;;;5.47;61.54;97837.78;4488831;31;20079;-85
2022/11/21 06:06:10;;;;;;;21.02;8.90;;;;;;;5.52;61.47;97837.56;4503096;31;20454;-86
2022/11/21 06:08:41;;;;;;;19.98;8.55;;;;;;;5.55;61.46;97840.03;4502666;31;20391;-86
2022/11/21 06:11:08;;;;;;;21.95;8.77;;;;;;;5.54;61.67;97834.88;4488530;31;20797;-86
2022/11/21 06:13:35;;;;;;;20.42;8.60;;;;;;;5.57;61.92;97838.19;4488576;31;20477;-85
2022/11/21 06:16:06;;;;;;;19.55;7.95;;;;;;;5.62;62.14;97823.13;4493153;31;20080;-89
2022/11/21 06:18:34;;;;;;;17.40;7.78;;;;;;;5.64;62.21;97834.34;4485869;32;20099;-90
2022/11/21 06:21:00;;;;;;;19.80;8.13;;;;;;;5.67;62.39;97830.72;4487003;31;20096;-88
2022/11/21 06:23:26;;;;;;;18.23;7.30;;;;;;;5.64;62.71;97831.75;4486985;31;20092;-88
2022/11/21 06:25:59;;;;;;;19.23;7.90;;;;;;;5.75;62.67;97836.41;4486593;31;20102;-87
2022/11/21 06:28:25;;;;;;;20.92;8.23;;;;;;;5.80;62.39;97844.03;4485706;32;20147;-87
2022/11/21 06:30:51;;;;;;;22.70;8.40;;;;;;;5.58;62.33;97844.25;4485370;31;20099;-90
2022/11/21 06:33:17;;;;;;;18.10;7.57;;;;;;;5.65;62.37;97838.66;4488200;31;20110;-90
2022/11/21 06:35:43;;;;;;;16.80;6.68;;;;;;;5.76;62.33;97845.13;4488294;31;20440;-89
2022/11/21 06:38:08;;;;;;;15.38;5.55;;;;;;;5.81;62.54;97845.72;4502475;31;20096;-89
2022/11/21 06:40:34;;;;;;;16.67;7.15;;;;;;;5.91;62.74;97849.56;4502590;31;20103;-89
2022/11/21 06:42:59;;;;;;;15.65;6.30;;;;;;;5.96;62.81;97847.59;4502422;31;20356;-88
2022/11/21 06:45:25;;;;;;;15.25;6.20;;;;;;;5.77;63.74;97854.63;4502268;31;20182;-87
2022/11/21 06:47:50;;;;;;;14.68;5.75;;;;;;;5.91;63.29;97858.25;4488018;31;20096;-87
2022/11/21 06:50:15;;;;;;;19.10;6.60;;;;;;;5.98;63.11;97861.44;4502423;31;20145;-83
2022/11/21 06:52:41;;;;;;;16.67;6.72;;;;;;;5.88;63.33;97865.41;4502301;31;20083;-86
2022/11/21 06:55:08;;;;;;;18.37;7.00;;;;;;;5.98;63.12;97863.19;4502497;31;20092;-89
2022/11/21 06:57:33;;;;;;;17.30;6.83;;;;;;;6.10;63.04;97873.03;4502587;31;20099;-86
2022/11/21 06:59:59;;;;;;;22.25;7.50;;;;;;;6.17;63.56;97881.41;4488611;31;20176;-86
2022/11/21 07:02:24;;;;;;;17.10;6.90;;;;;;;6.08;64.47;97878.34;4472182;32;20333;-86
2022/11/21 07:04:50;;;;;;;19.37;8.48;;;;;;;6.16;64.69;97883.19;4486300;32;20104;-86
2022/11/21 07:07:15;;;;;;;19.83;8.85;;;;;;;6.32;64.17;97879.75;4486013;32;20152;-85
2022/11/21 07:09:43;;;;;;;20.30;8.02;;;;;;;6.29;64.02;97876.38;4472072;32;20100;-85
2022/11/21 07:14:53;;;;;;;21.83;9.15;;;;;;;6.26;63.61;97884.41;4478952;31;20099;-85
2022/11/21 07:17:18;;;;;;;29.90;11.77;;;;;;;6.45;62.85;97886.03;4492530;31;20096;-84
2022/11/21 07:19:43;;;;;;;26.65;11.98;;;;;;;6.55;62.16;97889.87;4490699;31;20115;-85
2022/11/21 07:22:09;;;;;;;28.62;11.43;;;;;;;6.65;61.44;97888.47;4500556;31;20119;-84
2022/11/21 07:24:34;;;;;;;28.08;11.23;;;;;;;6.59;61.58;97887.97;4491289;31;20388;-85
2022/11/21 07:27:01;;;;;;;29.45;11.98;;;;;;;6.60;61.53;97885.25;4497378;31;20433;-85
2022/11/21 07:29:26;;;;;;;30.50;12.65;;;;;;;6.57;61.43;97884.59;4496524;31;20092;-85
2022/11/21 07:31:51;;;;;;;25.77;11.25;;;;;;;6.64;61.14;97881.53;4499324;31;20083;-84
2022/11/21 07:34:17;;;;;;;26.10;11.20;;;;;;;6.58;61.29;97883.63;4476094;31;20085;-84
2022/11/21 07:36:42;;;;;;;27.17;11.40;;;;;;;6.60;61.30;97881.78;4485038;31;20116;-85
2022/11/21 07:39:08;;;;;;;25.58;11.43;;;;;;;6.61;61.27;97883.50;4495649;31;20099;-84
2022/11/21 07:41:33;;;;;;;27.17;11.73;;;;;;;6.67;61.19;97876.16;4497260;31;20088;-85
2022/11/21 07:43:58;;;;;;;26.70;11.05;;;;;;;6.75;61.01;97882.75;4503761;31;20443;-84
2022/11/21 07:46:24;;;;;;;26.95;11.30;;;;;;;6.45;61.96;97886.03;4503744;31;20096;-85
2022/11/21 07:48:49;;;;;;;25.45;11.15;;;;;;;6.33;62.62;97886.69;4476319;31;20108;-85
2022/11/21 07:51:15;;;;;;;28.08;11.18;;;;;;;6.50;62.59;97878.81;4503675;31;20083;-84
2022/11/21 07:53:40;;;;;;;24.83;11.73;;;;;;;6.62;62.45;97887.78;4494566;31;20416;-82
2022/11/21 07:56:08;;;;;;;26.65;11.80;;;;;;;6.75;62.20;97883.59;4492453;31;20130;-83
2022/11/21 07:58:34;;;;;;;30.20;13.13;;;;;;;6.87;61.83;97893.38;4487867;31;20104;-83
2022/11/21 08:01:04;;;;;;;28.60;11.98;;;;;;;6.96;61.54;97896.47;4486939;31;20088;-86
2022/11/21 08:03:29;;;;;;;29.73;12.65;;;;;;;7.07;61.09;97899.34;4488382;31;20096;-86
2022/11/21 08:05:54;;;;;;;28.40;12.52;;;;;;;7.20;60.58;97896.87;4488664;31;20100;-86
2022/11/21 08:08:20;;;;;;;28.35;12.32;;;;;;;7.24;60.45;97907.13;4502356;31;20400;-87
2022/11/21 08:10:45;;;;;;;28.33;12.63;;;;;;;7.24;60.26;97899.25;4475949;31;20084;-86
2022/11/21 08:13:12;;;;;;;28.95;13.60;;;;;;;7.25;60.13;97903.56;4503939;31;20176;-86
2022/11/21 08:15:37;;;;;;;28.33;12.45;;;;;;;7.36;60.08;97910.84;4503647;31;20402;-86
2022/11/21 08:18:13;;;;;;;28.48;12.63;;;;;;;7.48;60.03;97906.69;4503465;31;20096;-86
2022/11/21 08:20:39;;;;;;;28.83;13.52;;;;;;;7.61;60.16;97915.53;4489378;31;20088;-86
2022/11/21 08:23:05;;;;;;;35.35;14.45;;;;;;;7.75;59.86;97911.31;4503515;31;20106;-86
2022/11/21 08:25:31;;;;;;;28.23;13.27;;;;;;;7.94;59.69;97911.06;4489305;31;20403;-87
2022/11/21 08:27:57;;;;;;;29.85;14.23;;;;;;;8.03;59.42;97903.50;4503449;31;20127;-87
2022/11/21 08:30:23;;;;;;;35.88;15.05;;;;;;;8.21;59.26;97911.25;4489013;31;20143;-87
2022/11/21 08:32:48;;;;;;;33.13;16.05;;;;;;;8.38;58.90;97907.59;4502511;31;20080;-86
2022/11/21 08:35:14;;;;;;;36.15;16.73;;;;;;;8.58;58.14;97906.47;4503323;31;20096;-87
2022/11/21 08:37:39;;;;;;;35.40;17.77;;;;;;;8.66;57.81;97909.47;4488945;31;20096;-86
2022/11/21 08:40:05;;;;;;;33.33;16.40;;;;;;;8.79;57.52;97910.41;4503506;31;20446;-86
2022/11/21 08:42:31;;;;;;;37.45;17.35;;;;;;;8.88;57.27;97914.22;4503436;31;20089;-86
2022/11/21 08:44:56;;;;;;;34.80;16.85;;;;;;;8.93;57.01;97917.41;4503363;31;20184;-86
2022/11/21 08:47:22;;;;;;;38.67;17.08;;;;;;;9.00;56.84;97916.09;4503303;31;20100;-86
2022/11/21 08:49:47;;;;;;;37.88;18.52;;;;;;;9.12;56.42;97911.03;4503276;31;20106;-86
2022/11/21 08:52:16;;;;;;;39.00;18.25;;;;;;;9.14;55.75;97906.53;4488967;31;20428;-87
2022/11/21 08:54:43;;;;;;;37.83;16.75;;;;;;;9.22;55.41;97906.88;4503203;31;20459;-87
2022/11/21 08:57:09;;;;;;;39.65;17.65;;;;;;;9.25;55.55;97917.19;4489055;31;20100;-86
2022/11/21 08:59:34;;;;;;;37.80;18.20;;;;;;;9.25;55.72;97922.44;4503234;31;20449;-87
2022/11/21 09:01:59;;;;;;;42.45;18.62;;;;;;;9.22;55.73;97918.22;4503239;31;20125;-86
2022/11/21 09:04:25;;;;;;;41.58;18.25;;;;;;;8.99;56.05;97913.56;4503299;31;20360;-87
2022/11/21 09:06:50;;;;;;;44.28;19.50;;;;;;;9.24;55.65;97910.25;4502836;31;20088;-86
2022/11/21 09:09:16;;;;;;;45.25;20.90;;;;;;;9.26;55.48;97911.00;4503049;31;20333;-87
2022/11/21 09:11:41;;;;;;;46.37;19.62;;;;;;;9.28;55.26;97918.78;4503153;31;20114;-87
2022/11/21 09:19:34;;;;;;;42.42;19.87;;;;;;;9.11;55.40;97915.41;4503350;31;20154;-88
2022/11/21 09:22:00;;;;;;;43.05;20.50;;;;;;;9.23;55.47;97921.69;4503024;31;20088;-87
2022/11/21 09:24:25;;;;;;;46.85;20.75;;;;;;;9.25;55.65;97906.66;4488699;31;20104;-87
2022/11/21 09:26:50;;;;;;;37.25;19.15;;;;;;;9.29;55.56;97902.94;4502989;31;20130;-87
2022/11/21 09:29:16;;;;;;;45.40;20.15;;;;;;;9.40;55.17;97904.84;4503077;31;20111;-87
2022/11/21 09:31:42;;;;;;;43.80;21.00;;;;;;;9.44;54.98;97912.47;4502931;31;20094;-87
2022/11/21 09:34:08;;;;;;;42.35;19.98;;;;;;;9.43;54.66;97899.41;4503130;31;20088;-87
2022/11/21 09:36:33;;;;;;;44.63;20.02;;;;;;;9.54;54.63;97902.19;4503171;31;20466;-87
2022/11/21 09:38:58;;;;;;;39.65;20.02;;;;;;;9.61;54.73;97902.63;4503260;31;20139;-87
2022/11/21 09:44:27;;;;;;;49.25;21.15;;;;;;;9.55;54.56;97909.12;4502834;31;20490;-87
2022/11/21 09:47:01;;;;;;;43.45;19.95;;;;;;;9.48;54.52;97907.00;4503052;31;20122;-87
2022/11/21 09:49:27;;;;;;;42.95;20.23;;;;;;;9.48;53.60;97907.81;4488734;31;20554;-87
2022/11/21 09:51:55;;;;;;;43.60;21.60;;;;;;;9.56;53.00;97912.59;4488291;31;20102;-87
2022/11/21 09:54:31;;;;;;;44.72;19.33;;;;;;;9.56;52.81;97913.47;4502816;31;20085;-87
2022/11/21 09:56:58;;;;;;;49.22;21.17;;;;;;;8.97;53.46;97915.44;4488632;31;20154;-87
2022/11/21 09:59:34;;;;;;;40.53;19.50;;;;;;;9.08;53.35;97922.66;4488865;31;20151;-87
2022/11/21 10:01:59;;;;;;;45.28;20.02;;;;;;;9.26;53.22;97921.50;4488432;31;20071;-87
2022/11/21 10:04:26;;;;;;;44.00;19.35;;;;;;;9.39;53.11;97911.91;4502924;31;20439;-87
2022/11/21 10:07:02;;;;;;;44.58;20.00;;;;;;;9.42;52.95;97916.12;4502844;31;20149;-87
2022/11/21 10:09:37;;;;;;;46.78;21.65;;;;;;;9.23;53.44;97919.06;4502937;31;20110;-87
2022/11/21 10:12:36;;;;;;;38.22;18.30;;;;;;;9.13;53.46;97918.78;4502854;31;20075;-87
2022/11/21 10:15:02;;;;;;;48.33;20.05;;;;;;;9.43;53.25;97913.41;4489584;31;20100;-87
2022/11/21 10:17:49;;;;;;;40.72;18.48;;;;;;;9.57;53.29;97895.88;4502724;31;20099;-87
2022/11/21 10:20:20;;;;;;;39.50;18.83;;;;;;;9.65;53.27;97902.31;4502609;31;20080;-87
2022/11/21 10:23:21;;;;;;;44.30;19.55;;;;;;;8.82;55.50;97904.09;4502737;31;20132;-87
2022/11/21 10:25:58;;;;;;;41.83;20.77;;;;;;;9.41;55.00;97898.66;4502841;31;20236;-87
2022/11/21 10:28:42;;;;;;;38.15;18.10;;;;;;;9.52;54.82;97897.97;4503038;31;20111;-87
2022/11/21 10:31:12;;;;;;;34.67;16.75;;;;;;;9.68;54.55;97885.53;4502583;31;20082;-86
2022/11/21 10:33:39;;;;;;;37.65;16.52;;;;;;;8.65;57.61;97892.00;4488307;31;20088;-87
2022/11/21 10:36:37;;;;;;;36.83;16.23;;;;;;;9.24;56.23;97879.56;4502568;31;20104;-87
2022/11/21 10:39:13;;;;;;;30.60;15.57;;;;;;;9.28;56.16;97872.31;4488314;31;20506;-87
2022/11/21 10:42:16;;;;;;;41.03;19.52;;;;;;;8.82;57.37;97877.84;4488251;31;20151;-87
2022/11/21 10:47:32;;;;;;;43.72;19.12;;;;;;;9.59;55.30;97871.16;4502482;31;20118;-87
2022/11/21 10:50:15;;;;;;;44.47;18.62;;;;;;;9.76;54.70;97872.69;4488040;31;20152;-87
2022/11/21 10:52:48;;;;;;;39.88;19.73;;;;;;;9.94;54.49;97869.78;4487951;31;20080;-87
2022/11/21 10:55:14;;;;;;;45.95;18.73;;;;;;;10.08;54.35;97866.25;4501373;31;20151;-87
2022/11/21 10:57:44;;;;;;;41.20;20.73;;;;;;;10.18;54.05;97870.78;4487930;31;20138;-87
2022/11/21 11:00:12;;;;;;;41.70;19.12;;;;;;;10.24;53.67;97870.38;4502240;31;20141;-86
2022/11/21 11:03:03;;;;;;;40.25;19.10;;;;;;;10.15;53.50;97870.97;4502181;31;20084;-87
2022/11/21 11:05:31;;;;;;;37.78;19.12;;;;;;;10.28;53.35;97871.00;4488349;31;20552;-87
2022/11/21 11:08:11;;;;;;;42.95;19.08;;;;;;;10.13;53.29;97867.63;4487792;31;20092;-87
2022/11/21 11:10:40;;;;;;;43.63;19.98;;;;;;;10.12;53.38;97872.97;4502077;31;20083;-87
2022/11/21 11:16:09;;;;;;;41.67;19.55;;;;;;;10.28;53.78;97867.53;4488802;31;20190;-87
2022/11/21 11:18:59;;;;;;;38.85;18.35;;;;;;;10.38;53.59;97864.19;4502057;31;20080;-87
2022/11/21 11:21:27;;;;;;;41.37;19.50;;;;;;;10.42;53.49;97864.81;4478166;31;20467;-86
2022/11/21 11:23:54;;;;;;;42.92;19.85;;;;;;;10.42;53.71;97855.12;4487896;31;20465;-87
2022/11/21 11:26:26;;;;;;;41.90;20.67;;;;;;;10.36;54.08;97858.19;4487669;31;20080;-85
2022/11/21 11:28:53;;;;;;;40.83;19.17;;;;;;;10.39;53.96;97851.84;4487950;31;20157;-87
2022/11/21 11:31:19;;;;;;;39.13;18.73;;;;;;;10.43;53.54;97843.66;4487566;31;20095;-87
2022/11/21 11:33:47;;;;;;;40.97;19.52;;;;;;;10.47;53.26;97843.44;4479655;31;20137;-87
2022/11/21 11:36:18;;;;;;;39.35;18.55;;;;;;;10.50;53.45;97836.16;4489427;31;20080;-86
2022/11/21 11:38:59;;;;;;;47.88;19.23;;;;;;;10.52;53.73;97838.69;4485080;32;20119;-86
2022/11/21 11:47:58;;;;;;;43.08;19.98;;;;;;;10.56;53.81;97825.19;4497580;31;20146;-86
2022/11/21 11:50:33;;;;;;;37.45;19.75;;;;;;;10.70;53.39;97824.25;4478172;31;20133;-85
2022/11/21 11:53:04;;;;;;;41.70;20.20;;;;;;;10.56;53.79;97825.19;4488993;31;20156;-85
2022/11/21 11:55:43;;;;;;;42.13;21.17;;;;;;;10.59;54.02;97822.38;4498274;31;20161;-88
2022/11/21 11:58:20;;;;;;;40.28;20.33;;;;;;;10.56;54.29;97817.28;4476025;31;20099;-87